createdAt,value
2022-10-08T00:01:36.082Z,78.62
2022-10-08T00:04:03.413Z,78.95
2022-10-08T00:06:32.686Z,79.83
2022-10-08T00:09:10.395Z,79.24
2022-10-08T00:11:40.024Z,79.30
2022-10-08T00:14:09.411Z,80.19
2022-10-08T00:16:41.881Z,80.11
2022-10-08T00:19:17.087Z,80.66
2022-10-08T00:21:51.096Z,80.27
2022-10-08T00:24:19.163Z,79.32
2022-10-08T00:26:49.471Z,78.02
2022-10-08T00:29:22.526Z,78.17
2022-10-08T00:31:52.082Z,77.75
2022-10-08T00:34:27.578Z,76.18
2022-10-08T00:36:55.906Z,76.79
2022-10-08T00:39:25.087Z,77.10
2022-10-08T00:41:55.636Z,76.09
2022-10-08T00:44:53.646Z,76.40
2022-10-08T00:47:32.778Z,76.19
2022-10-08T00:50:08.684Z,76.41
2022-10-08T00:52:59.604Z,76.89
2022-10-08T00:55:29.815Z,76.73
2022-10-08T00:58:01.216Z,76.40
2022-10-08T01:00:31.682Z,76.68
2022-10-08T01:03:03.306Z,76.62
2022-10-08T01:06:15.933Z,77.01
2022-10-08T01:09:18.899Z,75.91
2022-10-08T01:11:49.902Z,77.14
2022-10-08T01:14:41.587Z,77.09
2022-10-08T01:17:39.245Z,76.77
2022-10-08T01:20:45.207Z,77.13
2022-10-08T01:23:59.646Z,77.83
2022-10-08T01:26:38.365Z,77.19
2022-10-08T01:29:45.728Z,76.46
2022-10-08T01:32:20.776Z,76.97
2022-10-08T01:35:02.748Z,77.51
2022-10-08T01:37:41.926Z,76.71
2022-10-08T01:40:20.422Z,76.78
2022-10-08T01:42:49.890Z,75.84
2022-10-08T01:45:24.972Z,75.45
2022-10-08T01:47:54.827Z,76.55
2022-10-08T01:50:34.287Z,76.67
2022-10-08T01:53:11.525Z,76.75
2022-10-08T01:55:48.265Z,76.35
2022-10-08T01:58:28.952Z,75.92
2022-10-08T02:01:02.588Z,75.35
2022-10-08T02:03:31.719Z,76.09
2022-10-08T02:06:03.587Z,77.36
2022-10-08T02:08:32.977Z,77.07
2022-10-08T02:11:00.002Z,77.50
2022-10-08T02:13:30.425Z,77.94
2022-10-08T02:16:08.406Z,77.20
2022-10-08T02:18:48.021Z,78.38
2022-10-08T02:21:35.052Z,78.82
2022-10-08T02:24:11.274Z,77.72
2022-10-08T02:26:46.252Z,77.89
2022-10-08T02:29:22.498Z,77.87
2022-10-08T02:32:40.047Z,76.89
2022-10-08T02:35:25.478Z,77.01
2022-10-08T02:38:11.449Z,77.91
2022-10-08T02:40:45.901Z,76.87
2022-10-08T02:43:23.811Z,77.44
2022-10-08T02:46:17.233Z,76.51
2022-10-08T02:48:57.318Z,77.33
2022-10-08T02:51:29.195Z,76.61
2022-10-08T02:53:59.946Z,76.33
2022-10-08T02:56:39.553Z,76.96
2022-10-08T02:59:10.738Z,76.17
2022-10-08T03:01:58.812Z,77.21
2022-10-08T03:04:36.352Z,77.73
2022-10-08T03:07:06.988Z,77.86
2022-10-08T03:09:51.656Z,77.61
2022-10-08T03:12:19.154Z,77.74
2022-10-08T03:14:49.644Z,77.93
2022-10-08T03:17:40.033Z,77.79
2022-10-08T03:20:10.813Z,78.28
2022-10-08T03:22:40.640Z,77.28
2022-10-08T03:25:10.709Z,79.09
2022-10-08T03:27:39.991Z,78.71
2022-10-08T03:30:10.437Z,79.42
2022-10-08T03:32:37.226Z,80.21
2022-10-08T03:35:04.343Z,78.51
2022-10-08T03:37:33.434Z,79.26
2022-10-08T03:40:00.306Z,78.77
2022-10-08T03:42:29.617Z,79.50
2022-10-08T03:45:01.285Z,78.08
2022-10-08T03:47:28.102Z,78.85
2022-10-08T03:49:54.978Z,78.51
2022-10-08T03:52:21.934Z,78.75
2022-10-08T03:54:48.733Z,79.46
2022-10-08T03:57:15.647Z,80.20
2022-10-08T03:59:42.496Z,79.76
2022-10-08T04:02:14.076Z,80.48
2022-10-08T04:04:45.992Z,80.03
2022-10-08T04:07:12.838Z,78.86
2022-10-08T04:09:39.731Z,78.50
2022-10-08T04:12:06.625Z,77.67
2022-10-08T04:14:35.710Z,76.87
2022-10-08T04:17:02.595Z,76.75
2022-10-08T04:19:35.690Z,77.95
2022-10-08T04:22:02.522Z,77.74
2022-10-08T04:24:31.575Z,77.78
2022-10-08T04:27:00.682Z,76.35
2022-10-08T04:29:28.730Z,76.81
2022-10-08T04:32:00.585Z,78.89
2022-10-08T04:34:32.054Z,78.66
2022-10-08T04:36:58.844Z,77.84
2022-10-08T04:39:28.675Z,77.59
2022-10-08T04:42:01.643Z,78.38
2022-10-08T04:44:28.490Z,77.51
2022-10-08T04:46:57.640Z,79.36
2022-10-08T04:49:25.898Z,79.07
2022-10-08T04:51:55.854Z,79.29
2022-10-08T04:54:28.242Z,77.83
2022-10-08T04:56:55.115Z,79.00
2022-10-08T04:59:21.930Z,78.19
2022-10-08T05:01:52.782Z,77.59
2022-10-08T05:04:22.678Z,76.54
2022-10-08T05:06:49.885Z,77.96
2022-10-08T05:09:16.761Z,78.04
2022-10-08T05:11:43.673Z,78.29
2022-10-08T05:14:10.480Z,78.01
2022-10-08T05:16:37.595Z,77.32
2022-10-08T05:19:05.271Z,78.25
2022-10-08T05:21:32.664Z,78.23
2022-10-08T05:24:07.645Z,78.69
2022-10-08T05:29:24.825Z,79.60
2022-10-08T05:31:51.684Z,79.45
2022-10-08T05:34:18.517Z,78.95
2022-10-08T05:36:45.571Z,79.70
2022-10-08T05:39:12.374Z,79.32
2022-10-08T05:41:39.288Z,80.68
2022-10-08T05:44:08.291Z,81.95
2022-10-08T05:46:36.650Z,81.95
2022-10-08T05:49:10.902Z,81.13
2022-10-08T05:51:40.240Z,80.99
2022-10-08T05:54:07.066Z,80.83
2022-10-08T05:56:36.228Z,81.37
2022-10-08T05:59:03.055Z,81.80
2022-10-08T06:01:34.099Z,81.18
2022-10-08T06:04:08.783Z,80.72
2022-10-08T06:06:40.816Z,81.41
2022-10-08T06:09:10.233Z,80.81
2022-10-08T06:11:41.091Z,80.25
2022-10-08T06:14:14.613Z,79.88
2022-10-08T06:16:46.092Z,79.53
2022-10-08T06:19:13.565Z,79.69
2022-10-08T06:21:40.479Z,80.01
2022-10-08T06:24:11.325Z,80.83
2022-10-08T06:26:40.659Z,81.44
2022-10-08T06:29:14.306Z,80.87
2022-10-08T06:31:46.645Z,79.73
2022-10-08T06:34:13.649Z,79.73
2022-10-08T06:36:40.675Z,80.50
2022-10-08T06:39:12.543Z,79.80
2022-10-08T06:41:42.653Z,80.88
2022-10-08T06:44:15.744Z,80.86
2022-10-08T06:46:43.126Z,79.46
2022-10-08T06:49:12.826Z,79.00
2022-10-08T06:51:39.667Z,79.39
2022-10-08T06:54:08.334Z,81.11
2022-10-08T06:56:40.196Z,81.19
2022-10-08T06:59:07.894Z,80.61
2022-10-08T07:01:36.057Z,81.87
2022-10-08T07:04:06.968Z,81.92
2022-10-08T07:06:36.152Z,81.06
2022-10-08T07:09:04.973Z,81.04
2022-10-08T07:11:33.396Z,81.04
2022-10-08T07:14:02.700Z,80.86
2022-10-08T07:16:29.784Z,81.20
2022-10-08T07:18:59.838Z,81.75
2022-10-08T07:21:32.709Z,80.08
2022-10-08T07:24:01.076Z,80.15
2022-10-08T07:26:32.706Z,79.82
2022-10-08T07:29:12.063Z,79.88
2022-10-08T07:31:40.068Z,80.79
2022-10-08T07:34:11.508Z,80.49
2022-10-08T07:36:39.799Z,80.44
2022-10-08T07:39:18.823Z,78.48
2022-10-08T07:41:49.607Z,77.91
2022-10-08T07:44:17.759Z,75.30
2022-10-08T07:46:53.364Z,73.88
2022-10-08T07:49:24.758Z,69.02
2022-10-08T07:51:55.988Z,64.09
2022-10-08T07:54:24.247Z,58.54
2022-10-08T07:56:51.260Z,54.79
2022-10-08T07:59:18.097Z,49.17
2022-10-08T08:01:45.236Z,50.23
2022-10-08T08:04:14.943Z,48.02
2022-10-08T08:06:48.609Z,45.38
2022-10-08T08:09:16.294Z,42.97
2022-10-08T08:11:43.299Z,41.53
2022-10-08T08:14:10.326Z,40.73
2022-10-08T08:16:38.052Z,41.19
2022-10-08T08:19:05.244Z,44.58
2022-10-08T08:21:38.135Z,45.43
2022-10-08T08:24:13.595Z,42.22
2022-10-08T08:26:42.877Z,38.84
2022-10-08T08:29:25.694Z,37.73
2022-10-08T08:31:52.648Z,35.92
2022-10-08T08:34:25.116Z,35.61
2022-10-08T08:36:56.585Z,36.03
2022-10-08T08:39:26.727Z,37.07
2022-10-08T08:41:58.289Z,37.29
2022-10-08T08:44:44.242Z,40.33
2022-10-08T08:47:27.370Z,44.79
2022-10-08T08:50:19.787Z,42.23
2022-10-08T08:52:46.831Z,43.54
2022-10-08T08:55:18.089Z,38.98
2022-10-08T08:57:54.256Z,35.59
2022-10-08T09:00:25.854Z,36.82
2022-10-08T09:03:13.846Z,39.96
2022-10-08T09:05:45.349Z,39.85
2022-10-08T09:08:34.918Z,37.91
2022-10-08T09:11:04.570Z,38.68
2022-10-08T09:13:51.040Z,37.48
2022-10-08T09:16:18.916Z,35.36
2022-10-08T09:18:49.383Z,36.23
2022-10-08T09:21:17.479Z,37.89
2022-10-08T09:23:45.007Z,38.82
2022-10-08T09:26:23.124Z,39.50
2022-10-08T09:29:00.914Z,39.02
2022-10-08T09:31:40.068Z,42.35
2022-10-08T09:34:13.321Z,44.95
2022-10-08T09:36:45.845Z,47.23
2022-10-08T09:39:23.986Z,47.48
2022-10-08T09:42:23.242Z,40.14
2022-10-08T09:44:51.458Z,39.66
2022-10-08T09:47:21.460Z,39.18
2022-10-08T09:50:19.224Z,39.10
2022-10-08T09:52:53.283Z,43.15
2022-10-08T09:55:35.208Z,45.67
2022-10-08T09:58:04.093Z,43.69
2022-10-08T10:00:41.381Z,41.89
2022-10-08T10:03:17.502Z,37.63
2022-10-08T10:05:51.191Z,35.98
2022-10-08T10:08:58.673Z,34.88
2022-10-08T10:11:39.843Z,35.19
2022-10-08T10:14:41.666Z,37.14
2022-10-08T10:17:30.509Z,32.02
2022-10-08T10:20:12.326Z,32.24
2022-10-08T10:22:53.511Z,33.50
2022-10-08T10:25:38.919Z,38.32
2022-10-08T10:28:27.449Z,40.26
2022-10-08T10:31:05.069Z,43.21
2022-10-08T10:33:56.332Z,41.13
2022-10-08T10:36:27.116Z,38.88
2022-10-08T10:39:35.600Z,42.88
2022-10-08T10:42:23.372Z,42.18
2022-10-08T10:45:18.623Z,43.39
2022-10-08T10:47:45.578Z,46.26
2022-10-08T10:50:14.450Z,46.38
2022-10-08T10:53:17.465Z,49.17
2022-10-08T10:56:21.704Z,50.91
2022-10-08T10:59:09.307Z,51.71
2022-10-08T11:02:21.089Z,53.47
2022-10-08T11:05:20.535Z,54.83
2022-10-08T11:08:25.511Z,57.91
2022-10-08T11:10:57.317Z,57.07
2022-10-08T11:14:06.608Z,58.02
2022-10-08T11:17:07.192Z,59.18
2022-10-08T11:19:59.375Z,58.62
2022-10-08T11:23:07.386Z,55.09
2022-10-08T11:26:14.083Z,46.76
2022-10-08T11:29:01.902Z,35.91
2022-10-08T11:31:46.455Z,36.93
2022-10-08T11:34:24.390Z,41.19
2022-10-08T11:37:24.095Z,46.11
2022-10-08T11:40:38.841Z,48.47
2022-10-08T11:43:27.537Z,51.28
2022-10-08T11:46:36.691Z,49.64
2022-10-08T11:49:25.230Z,49.65
2022-10-08T11:51:54.052Z,47.49
2022-10-08T11:54:34.786Z,42.89
2022-10-08T11:57:18.310Z,40.60
2022-10-08T12:00:36.177Z,38.38
2022-10-08T12:03:27.410Z,32.74
2022-10-08T12:06:24.691Z,30.14
2022-10-08T12:09:01.422Z,28.25
2022-10-08T12:11:35.453Z,26.51
2022-10-08T12:14:11.772Z,28.33
2022-10-08T12:16:47.854Z,28.39
2022-10-08T12:19:33.630Z,27.57
2022-10-08T12:22:03.892Z,27.86
2022-10-08T12:24:39.816Z,26.60
2022-10-08T12:27:18.749Z,27.13
2022-10-08T12:30:13.010Z,26.90
2022-10-08T12:32:39.897Z,25.50
2022-10-08T12:36:02.183Z,24.84
2022-10-08T12:38:53.055Z,26.32
2022-10-08T12:41:33.724Z,26.70
2022-10-08T12:45:07.232Z,28.79
2022-10-08T12:48:05.269Z,30.78
2022-10-08T12:50:58.800Z,33.65
2022-10-08T12:53:27.932Z,35.49
2022-10-08T12:55:57.737Z,37.13
2022-10-08T12:58:35.165Z,37.22
2022-10-08T13:01:04.595Z,38.09
2022-10-08T13:03:33.841Z,38.75
2022-10-08T13:06:28.392Z,39.87
2022-10-08T13:08:58.596Z,41.31
2022-10-08T13:11:27.572Z,43.82
2022-10-08T13:13:56.584Z,40.88
2022-10-08T13:16:26.807Z,34.58
2022-10-08T13:18:58.347Z,30.84
2022-10-08T13:21:31.153Z,28.30
2022-10-08T13:23:59.275Z,26.51
2022-10-08T13:26:48.245Z,26.17
2022-10-08T13:29:24.238Z,24.42
2022-10-08T13:32:14.658Z,24.91
2022-10-08T13:34:41.409Z,26.20
2022-10-08T13:37:38.209Z,25.23
2022-10-08T13:40:12.465Z,24.99
2022-10-08T13:42:53.340Z,26.10
2022-10-08T13:45:31.668Z,26.39
2022-10-08T13:47:59.215Z,29.74
2022-10-08T13:50:26.155Z,32.05
2022-10-08T13:52:56.182Z,34.04
2022-10-08T13:55:33.969Z,36.09
2022-10-08T13:58:05.445Z,38.04
2022-10-08T14:00:36.391Z,39.62
2022-10-08T14:03:03.618Z,40.95
2022-10-08T14:05:39.816Z,40.81
2022-10-08T14:08:20.887Z,41.54
2022-10-08T14:10:48.112Z,42.30
2022-10-08T14:13:18.489Z,38.78
2022-10-08T14:15:45.405Z,35.59
2022-10-08T14:18:14.408Z,32.00
2022-10-08T14:20:41.401Z,31.62
2022-10-08T14:23:12.086Z,30.91
2022-10-08T14:25:38.937Z,31.57
2022-10-08T14:28:05.904Z,32.19
2022-10-08T14:30:32.851Z,31.62
2022-10-08T14:33:04.061Z,30.96
2022-10-08T14:35:32.499Z,30.75
2022-10-08T14:37:59.390Z,30.12
2022-10-08T14:40:28.818Z,30.77
2022-10-08T14:42:55.654Z,29.98
2022-10-08T14:45:22.915Z,30.27
2022-10-08T14:47:51.942Z,32.37
2022-10-08T14:50:18.769Z,33.86
2022-10-08T14:52:45.865Z,35.53
2022-10-08T14:55:15.683Z,37.16
2022-10-08T14:57:47.165Z,37.84
2022-10-08T15:00:16.921Z,36.57
2022-10-08T15:02:46.554Z,34.48
2022-10-08T15:05:15.567Z,33.24
2022-10-08T15:07:47.267Z,33.56
2022-10-08T15:10:16.745Z,35.74
2022-10-08T15:12:50.976Z,37.68
2022-10-08T15:15:19.763Z,39.76
2022-10-08T15:17:47.530Z,41.93
2022-10-08T15:20:15.467Z,42.67
2022-10-08T15:22:42.606Z,43.23
2022-10-08T15:25:09.852Z,43.51
2022-10-08T15:27:39.150Z,43.75
2022-10-08T15:30:06.903Z,44.48
2022-10-08T15:32:37.202Z,44.81
2022-10-08T15:35:04.274Z,44.42
2022-10-08T15:37:33.632Z,45.16
2022-10-08T15:40:00.482Z,45.83
2022-10-08T15:42:31.897Z,46.75
2022-10-08T15:44:58.700Z,47.79
2022-10-08T15:47:25.584Z,47.40
2022-10-08T15:49:52.534Z,47.35
2022-10-08T15:52:21.542Z,47.39
2022-10-08T15:54:53.523Z,48.21
2022-10-08T15:57:20.371Z,49.74
2022-10-08T15:59:49.666Z,49.03
2022-10-08T16:02:19.169Z,49.38
2022-10-08T16:04:49.594Z,49.75
2022-10-08T16:07:19.341Z,50.79
2022-10-08T16:09:46.265Z,50.64
2022-10-08T16:12:18.062Z,51.05
2022-10-08T16:14:47.421Z,51.16
2022-10-08T16:17:14.337Z,51.80
2022-10-08T16:19:42.006Z,52.19
2022-10-08T16:22:08.890Z,53.01
2022-10-08T16:24:35.720Z,53.01
2022-10-08T16:27:04.824Z,52.82
2022-10-08T16:29:31.730Z,52.94
2022-10-08T16:31:58.773Z,53.68
2022-10-08T16:34:28.670Z,54.46
2022-10-08T16:36:55.666Z,54.19
2022-10-08T16:39:24.361Z,53.58
2022-10-08T16:41:51.344Z,54.52
2022-10-08T16:44:20.534Z,55.57
2022-10-08T16:46:51.177Z,55.58
2022-10-08T16:49:25.473Z,56.14
2022-10-08T16:52:02.317Z,55.80
2022-10-08T16:54:30.309Z,56.10
2022-10-08T16:56:58.884Z,56.14
2022-10-08T16:59:27.885Z,56.57
2022-10-08T17:01:57.954Z,57.22
2022-10-08T17:04:27.893Z,57.28
2022-10-08T17:06:57.516Z,57.68
2022-10-08T17:09:26.615Z,57.21
2022-10-08T17:11:58.626Z,57.73
2022-10-08T17:14:29.464Z,58.30
2022-10-08T17:16:56.349Z,58.45
2022-10-08T17:19:23.196Z,58.61
2022-10-08T17:21:52.251Z,58.34
2022-10-08T17:24:26.156Z,57.93
2022-10-08T17:26:55.688Z,59.18
2022-10-08T17:29:22.475Z,59.84
2022-10-08T17:31:49.352Z,59.75
2022-10-08T17:34:20.692Z,60.01
2022-10-08T17:36:48.726Z,60.16
2022-10-08T17:39:17.842Z,60.91
2022-10-08T17:41:44.835Z,60.98
2022-10-08T17:44:12.314Z,61.15
2022-10-08T17:46:46.853Z,61.18
2022-10-08T17:49:20.399Z,61.18
2022-10-08T17:51:51.111Z,61.88
2022-10-08T17:54:20.385Z,61.80
2022-10-08T17:56:48.803Z,61.76
2022-10-08T17:59:18.254Z,62.18
2022-10-08T18:01:47.608Z,62.55
2022-10-08T18:04:19.548Z,63.14
2022-10-08T18:06:47.853Z,63.26
2022-10-08T18:09:20.416Z,63.74
2022-10-08T18:11:52.162Z,63.93
2022-10-08T18:14:20.875Z,63.82
2022-10-08T18:16:50.696Z,64.37
2022-10-08T18:19:20.819Z,64.95
2022-10-08T18:21:50.081Z,65.16
2022-10-08T18:24:19.653Z,65.12
2022-10-08T18:26:49.093Z,65.24
2022-10-08T18:29:17.849Z,64.86
2022-10-08T18:31:46.672Z,65.61
2022-10-08T18:34:17.577Z,66.40
2022-10-08T18:36:45.305Z,66.40
2022-10-08T18:39:15.501Z,66.32
2022-10-08T18:41:47.561Z,65.75
2022-10-08T18:44:21.994Z,66.21
2022-10-08T18:46:49.543Z,66.32
2022-10-08T18:49:20.002Z,66.57
2022-10-08T18:51:51.946Z,66.51
2022-10-08T18:54:18.810Z,67.24
2022-10-08T18:56:48.162Z,66.91
2022-10-08T18:59:16.912Z,66.54
2022-10-08T19:01:49.233Z,66.70
2022-10-08T19:04:20.128Z,66.33
2022-10-08T19:06:49.344Z,67.94
2022-10-08T19:09:16.905Z,68.73
2022-10-08T19:11:51.217Z,68.87
2022-10-08T19:14:21.848Z,68.90
2022-10-08T19:16:52.502Z,69.63
2022-10-08T19:19:25.363Z,69.34
2022-10-08T19:21:54.294Z,70.25
2022-10-08T19:24:26.022Z,69.88
2022-10-08T19:26:58.249Z,70.55
2022-10-08T19:29:31.896Z,71.71
2022-10-08T19:31:58.826Z,71.90
2022-10-08T19:34:29.434Z,73.64
2022-10-08T19:36:56.947Z,73.00
2022-10-08T19:39:28.020Z,74.16
2022-10-08T19:41:58.134Z,73.73
2022-10-08T19:44:27.293Z,74.81
2022-10-08T19:46:54.194Z,74.99
2022-10-08T19:49:22.076Z,75.12
2022-10-08T19:51:49.115Z,75.90
2022-10-08T19:54:16.514Z,75.50
2022-10-08T19:56:43.850Z,76.21
2022-10-08T19:59:13.426Z,75.00
2022-10-08T20:01:41.778Z,76.15
2022-10-08T20:04:10.135Z,76.71
2022-10-08T20:06:42.206Z,75.74
2022-10-08T20:09:14.567Z,76.44
2022-10-08T20:11:48.049Z,76.30
2022-10-08T20:14:15.302Z,76.50
2022-10-08T20:16:45.590Z,76.25
2022-10-08T20:19:19.553Z,76.29
2022-10-08T20:21:48.367Z,78.43
2022-10-08T20:24:16.631Z,80.69
2022-10-08T20:26:44.562Z,80.81
2022-10-08T20:29:15.974Z,80.27
2022-10-08T20:31:55.344Z,80.03
2022-10-08T20:34:30.955Z,79.94
2022-10-08T20:36:59.120Z,79.54
2022-10-08T20:39:28.322Z,79.24
2022-10-08T20:41:59.520Z,79.53
2022-10-08T20:44:26.455Z,79.71
2022-10-08T20:46:54.257Z,80.47
2022-10-08T20:49:21.405Z,81.11
2022-10-08T20:51:48.505Z,80.53
2022-10-08T20:54:16.811Z,80.32
2022-10-08T20:56:44.072Z,81.08
2022-10-08T20:59:16.593Z,81.63
2022-10-08T21:01:46.791Z,81.20
2022-10-08T21:04:16.331Z,80.88
2022-10-08T21:06:46.968Z,81.76
2022-10-08T21:09:15.590Z,81.51
2022-10-08T21:11:45.740Z,81.50
2022-10-08T21:14:17.460Z,81.83
2022-10-08T21:16:44.437Z,81.55
2022-10-08T21:19:18.762Z,81.31
2022-10-08T21:21:45.589Z,81.15
2022-10-08T21:24:12.489Z,80.56
2022-10-08T21:26:41.644Z,80.70
2022-10-08T21:29:14.995Z,79.16
2022-10-08T21:31:46.547Z,78.66
2022-10-08T21:34:13.683Z,79.95
2022-10-08T21:36:41.816Z,79.12
2022-10-08T21:39:16.117Z,78.54
2022-10-08T21:41:43.658Z,80.24
2022-10-08T21:44:10.780Z,79.50
2022-10-08T21:46:41.106Z,79.88
2022-10-08T21:49:20.567Z,79.62
2022-10-08T21:51:47.543Z,80.02
2022-10-08T21:54:15.842Z,79.62
2022-10-08T21:56:46.465Z,78.88
2022-10-08T21:59:15.490Z,78.69
2022-10-08T22:01:50.587Z,79.16
2022-10-08T22:04:25.418Z,79.40
2022-10-08T22:07:01.716Z,80.35
2022-10-08T22:09:31.729Z,80.85
2022-10-08T22:12:03.719Z,80.95
2022-10-08T22:14:32.073Z,81.54
2022-10-08T22:17:06.867Z,81.29
2022-10-08T22:19:36.230Z,81.81
2022-10-08T22:22:03.820Z,81.91
2022-10-08T22:24:33.694Z,82.07
2022-10-08T22:27:02.173Z,82.21
2022-10-08T22:29:29.317Z,82.13
2022-10-08T22:31:56.822Z,82.50
2022-10-08T22:34:24.122Z,83.31
2022-10-08T22:36:53.500Z,84.29
2022-10-08T22:39:20.324Z,83.24
2022-10-08T22:41:47.098Z,83.11
2022-10-08T22:44:13.920Z,82.87
2022-10-08T22:46:40.836Z,83.10
2022-10-08T22:49:12.855Z,83.20
2022-10-08T22:51:39.831Z,83.10
2022-10-08T22:54:07.195Z,82.58
2022-10-08T22:56:34.312Z,82.91
2022-10-08T22:59:01.321Z,83.07
2022-10-08T23:01:32.015Z,83.30
2022-10-08T23:04:01.467Z,82.58
2022-10-08T23:06:38.196Z,83.62
2022-10-08T23:09:08.182Z,83.79
2022-10-08T23:11:35.131Z,85.73
2022-10-08T23:14:05.176Z,86.28
2022-10-08T23:16:34.119Z,84.85
2022-10-08T23:19:09.146Z,85.54
2022-10-08T23:21:37.011Z,85.24
2022-10-08T23:24:06.945Z,85.16
2022-10-08T23:26:36.047Z,84.24
2022-10-08T23:29:05.706Z,84.56
2022-10-08T23:31:35.900Z,83.05
2022-10-08T23:34:03.702Z,84.31
2022-10-08T23:36:34.511Z,84.43
2022-10-08T23:39:05.362Z,83.59
2022-10-08T23:41:32.357Z,84.73
2022-10-08T23:44:01.916Z,85.08
2022-10-08T23:46:33.645Z,85.53
2022-10-08T23:49:03.012Z,86.42
2022-10-08T23:51:32.005Z,85.60
2022-10-08T23:53:59.054Z,85.55
2022-10-08T23:56:28.471Z,85.96
2022-10-08T23:58:55.339Z,86.04
